Contact Us:
Email: info@sawbill.com
Phone: (218)663-7150
Fax: (218)663-7980
Mail: 4620 Sawbill Trail
Box 2129
Tofte, MN 55615


Powered by
Movable Type 3.15
 
Sawbill Weather History Archives: January 2009
Current Sawbill Weather History | « December 2008 | February 2009 »


Date

High
Temperature

Low
Temperature

Barometric
Pressure

Relative
Humidity 7AM

9 AM
Temperature

Moisture

Snow

1/31/09 30 13 29.50 76% 14 .15" 2"
1/30/09 16 -12 29.47 92% 16 .04" Trace
1/29/09 10 -13 29.91 59% -12 .05" .5"
1/28/09 15 -4 29.68 59% 9 Trace Trace
1/27/09 13 -10 29.71 76% -4 0
1/26/09 0 -15 30.15 76% -9 0
1/25/09 -1 -17 30.15 76% -15 0
1/24/09 3 -17 30.09 76% -16 Trace Trace
1/23/09 4 -14 30.12 76% -11 Trace Trace
1/22/09 23 4 29.95 76% 4 .05" Trace
1/21/09 21 18 29.80 89% 20 0
1/20/09 20 12 29.74 87% 18 0
1/19/09 12 4 29.97 78% 12 .07" 1"
1/18/09 11 -1 29.83 68% 4 Trace Trace
1/17/09 8 -7 29.74 68% 2 .07" 1.5"
1/16/09 5 -19 29.54 68% 5 .31" 4.5"
1/15/09 -9 -23 30.24 68% -19 0
1/14/09 -9 -25 30.27 68% -23 Trace Trace
1/13/09 -6 -27 30.09 68% -25 0
1/12/09 10 -22 30.03 68% -21 Trace Trace
1/11/09 15 -1 29.97 68% 7 Trace Trace
1/10/09 18 -2 29.92 72% 9 0
1/9/09 8 -22 30.12 79% -1 0
1/8/09 5 -22 30.00 79% -22 0
1/7/09 20 -3 29.71 79% -2 .03" .5"
1/6/09 19 11 29.32 88% 15 .11" 1.5"
1/5/09 11 -14 29.62 85% 11 0
1/4/09 15 -15 29.83 85% -14 0
1/3/09 22 9 29.85 88% 15 .3" 5"
1/2/09 9 -3 30.00 81% 9 Trace Trace
1/1/09 16 -1 29.68 81% -1 .07" 1"
 


Home I Trip Planning I Rentals and Outfitting I Reservations I Campgrounds I Sawbill Store I Sawbill News I Contact

© 1997 - 2017, Sawbill Canoe Outfitters, Inc. I Privacy Policy